Time;durP1;ratioP1;P1;durP2;ratioP2;P2;SDS_P1;SDS_P2;PMS_P1;PMS_P2;Temp;Humidity;BMP_temperature;BMP_pressure;BME280_temperature;BME280_humidity;BME280_pressure;Samples;Min_cycle;Max_cycle;Signal;HPM_P1;HPM_P2
2023/09/03 00:00:44;;;;;;;;;;;19.40;99.90;;;;;;5090582;28;19928;-68
2023/09/03 00:03:12;;;;;;;;;;;19.50;99.90;;;;;;5088660;28;20007;-68
2023/09/03 00:05:47;;;;;;;;;;;19.50;99.90;;;;;;5089517;28;19924;-69
2023/09/03 00:08:15;;;;;;;;;;;19.50;99.90;;;;;;5079723;28;19925;-68
2023/09/03 00:10:42;;;;;;;;;;;19.50;99.90;;;;;;5072877;28;20805;-68
2023/09/03 00:13:10;;;;;;;;;;;19.40;99.90;;;;;;5075109;28;19986;-70
2023/09/03 00:15:40;;;;;;;;;;;19.40;99.90;;;;;;5072204;28;19925;-70
2023/09/03 00:18:10;;;;;;;;;;;19.40;99.90;;;;;;5072653;28;19924;-69
2023/09/03 00:20:41;;;;;;;;;;;19.40;99.90;;;;;;5072023;28;19928;-69
2023/09/03 00:23:09;;;;;;;;;;;19.50;99.90;;;;;;5086291;28;20390;-71
2023/09/03 00:25:37;;;;;;;;;;;19.50;99.90;;;;;;5082247;28;19924;-70
2023/09/03 00:28:05;;;;;;;;;;;19.60;99.90;;;;;;5081458;28;19928;-70
2023/09/03 00:30:33;;;;;;;;;;;19.80;99.90;;;;;;5088602;28;19924;-70
2023/09/03 00:33:02;;;;;;;;;;;19.70;99.90;;;;;;5075785;28;19936;-69
2023/09/03 00:35:29;;;;;;;;;;;19.70;99.90;;;;;;5079783;28;20082;-69
2023/09/03 00:37:56;;;;;;;;;;;19.80;99.90;;;;;;5077997;28;19928;-69
2023/09/03 00:40:24;;;;;;;;;;;19.80;99.90;;;;;;5086024;28;19925;-70
2023/09/03 00:42:52;;;;;;;;;;;19.80;99.90;;;;;;5079521;28;19925;-68
2023/09/03 00:45:20;;;;;;;;;;;19.90;99.90;;;;;;5082146;28;20379;-68
2023/09/03 00:47:48;;;;;;;;;;;19.90;99.90;;;;;;5078637;28;20851;-69
2023/09/03 00:50:17;;;;;;;;;;;19.90;99.90;;;;;;5086069;28;20832;-69
2023/09/03 00:52:45;;;;;;;;;;;19.90;99.90;;;;;;5076759;28;20405;-68
2023/09/03 00:55:13;;;;;;;;;;;19.90;99.90;;;;;;5080654;28;19946;-67
2023/09/03 00:57:41;;;;;;;;;;;19.80;99.90;;;;;;5081628;28;19928;-68
2023/09/03 01:00:10;;;;;;;;;;;19.70;99.90;;;;;;5081183;28;19928;-68
2023/09/03 01:02:38;;;;;;;;;;;19.60;99.90;;;;;;5074404;28;19936;-67
2023/09/03 01:05:07;;;;;;;;;;;19.60;99.90;;;;;;5084452;28;19928;-66
2023/09/03 01:07:36;;;;;;;;;;;19.50;99.90;;;;;;5082423;28;19978;-68
2023/09/03 01:10:04;;;;;;;;;;;19.60;99.90;;;;;;5076356;28;20418;-67
2023/09/03 01:12:36;;;;;;;;;;;19.60;99.90;;;;;;5079284;28;19929;-67
2023/09/03 01:15:08;;;;;;;;;;;19.50;99.90;;;;;;5076979;28;19929;-67
2023/09/03 01:17:41;;;;;;;;;;;19.50;99.90;;;;;;5077825;28;19932;-67
2023/09/03 01:20:11;;;;;;;;;;;19.50;99.90;;;;;;5079946;28;19968;-68
2023/09/03 01:22:49;;;;;;;;;;;19.50;99.90;;;;;;5091988;28;19924;-68
2023/09/03 01:25:22;;;;;;;;;;;19.50;99.90;;;;;;5083536;28;19924;-69
2023/09/03 01:27:52;;;;;;;;;;;19.50;99.90;;;;;;5076335;28;19932;-69
2023/09/03 01:30:21;;;;;;;;;;;19.40;99.90;;;;;;5082657;28;19928;-68
2023/09/03 01:32:50;;;;;;;;;;;19.30;99.90;;;;;;5080731;28;19936;-68
2023/09/03 01:35:18;;;;;;;;;;;19.30;99.90;;;;;;5078060;28;19954;-67
2023/09/03 01:37:46;;;;;;;;;;;19.30;99.90;;;;;;5092616;28;19977;-67
2023/09/03 01:40:14;;;;;;;;;;;19.20;99.90;;;;;;5079086;28;19928;-67
2023/09/03 01:42:42;;;;;;;;;;;19.10;99.90;;;;;;5080238;28;19924;-68
2023/09/03 01:45:10;;;;;;;;;;;19.20;99.90;;;;;;5085557;28;20046;-68
2023/09/03 01:47:42;;;;;;;;;;;19.10;99.90;;;;;;5077473;28;19986;-68
2023/09/03 01:50:14;;;;;;;;;;;19.10;99.90;;;;;;5085568;28;19931;-67
2023/09/03 01:52:46;;;;;;;;;;;19.10;99.90;;;;;;5089193;28;19924;-67
2023/09/03 01:55:15;;;;;;;;;;;19.10;99.90;;;;;;5083114;28;19928;-69
2023/09/03 01:57:45;;;;;;;;;;;18.90;99.90;;;;;;5079878;28;19931;-68
2023/09/03 02:00:13;;;;;;;;;;;18.90;99.90;;;;;;5076631;28;19994;-69
2023/09/03 02:02:44;;;;;;;;;;;19.00;99.90;;;;;;5081753;28;20386;-69
2023/09/03 02:05:12;;;;;;;;;;;18.90;99.90;;;;;;5082056;28;19928;-70
2023/09/03 02:07:40;;;;;;;;;;;18.90;99.90;;;;;;5089838;28;19940;-70
2023/09/03 02:10:08;;;;;;;;;;;19.10;99.90;;;;;;5083766;28;19931;-69
2023/09/03 02:12:36;;;;;;;;;;;19.10;99.90;;;;;;5083275;28;19924;-69
2023/09/03 02:15:04;;;;;;;;;;;19.20;99.90;;;;;;5076092;28;19931;-68
2023/09/03 02:17:32;;;;;;;;;;;19.20;99.90;;;;;;5083009;28;19977;-69
2023/09/03 02:20:01;;;;;;;;;;;19.30;99.90;;;;;;5077865;28;20585;-69
2023/09/03 02:22:29;;;;;;;;;;;19.30;99.90;;;;;;5080380;28;19924;-69
2023/09/03 02:24:57;;;;;;;;;;;19.30;99.90;;;;;;5081900;28;19929;-69
2023/09/03 02:27:25;;;;;;;;;;;19.30;99.90;;;;;;5079768;28;19985;-69
2023/09/03 02:29:52;;;;;;;;;;;19.20;99.90;;;;;;5080402;28;19936;-69
2023/09/03 02:32:20;;;;;;;;;;;19.20;99.90;;;;;;5075146;28;19985;-69
2023/09/03 02:34:48;;;;;;;;;;;19.10;99.90;;;;;;5074865;28;19932;-69
2023/09/03 02:37:18;;;;;;;;;;;19.10;99.90;;;;;;5077627;28;20314;-69
2023/09/03 02:39:46;;;;;;;;;;;18.90;99.90;;;;;;5084241;28;20003;-68
2023/09/03 02:42:13;;;;;;;;;;;18.90;99.90;;;;;;5081480;28;20533;-68
2023/09/03 02:44:41;;;;;;;;;;;18.80;99.90;;;;;;5076058;28;19924;-68
2023/09/03 02:47:09;;;;;;;;;;;18.80;99.90;;;;;;5077051;28;19924;-68
2023/09/03 02:49:37;;;;;;;;;;;19.00;99.90;;;;;;5071708;28;20287;-68
2023/09/03 02:52:05;;;;;;;;;;;19.10;99.90;;;;;;5080782;28;20398;-68
2023/09/03 02:54:34;;;;;;;;;;;19.10;99.90;;;;;;5089015;28;20006;-68
2023/09/03 02:57:02;;;;;;;;;;;19.20;99.90;;;;;;5086099;28;19928;-68
2023/09/03 02:59:31;;;;;;;;;;;19.30;99.90;;;;;;5075110;28;19929;-68
2023/09/03 03:01:59;;;;;;;;;;;19.30;99.90;;;;;;5076395;28;20452;-68
2023/09/03 03:04:27;;;;;;;;;;;19.30;99.90;;;;;;5076856;28;19940;-69
2023/09/03 03:06:54;;;;;;;;;;;19.20;99.90;;;;;;5084013;28;19930;-68
2023/09/03 03:09:23;;;;;;;;;;;19.20;99.90;;;;;;5079801;28;19997;-68
2023/09/03 03:11:52;;;;;;;;;;;19.20;99.90;;;;;;5077095;28;19924;-68
2023/09/03 03:14:20;;;;;;;;;;;19.10;99.90;;;;;;5072683;28;19924;-68
2023/09/03 03:16:48;;;;;;;;;;;19.30;99.90;;;;;;5079535;28;19985;-68
2023/09/03 03:19:18;;;;;;;;;;;19.30;99.90;;;;;;5072082;28;19928;-67
2023/09/03 03:21:46;;;;;;;;;;;19.20;99.90;;;;;;5083504;28;19939;-68
2023/09/03 03:24:14;;;;;;;;;;;19.00;99.90;;;;;;5087191;28;19931;-68
2023/09/03 03:26:41;;;;;;;;;;;18.80;99.90;;;;;;5082186;28;19931;-68
2023/09/03 03:29:11;;;;;;;;;;;18.70;99.90;;;;;;5079710;28;20455;-67
2023/09/03 03:31:38;;;;;;;;;;;18.50;99.90;;;;;;5078141;28;19986;-68
2023/09/03 03:34:06;;;;;;;;;;;18.50;99.90;;;;;;5076860;28;20415;-69
2023/09/03 03:36:34;;;;;;;;;;;18.50;99.90;;;;;;5079280;28;19924;-67
2023/09/03 03:39:02;;;;;;;;;;;18.60;99.90;;;;;;5079908;28;19970;-67
2023/09/03 03:41:29;;;;;;;;;;;18.60;99.90;;;;;;5076681;28;19928;-68
2023/09/03 03:43:57;;;;;;;;;;;18.70;99.90;;;;;;5083116;28;20345;-68
2023/09/03 03:46:26;;;;;;;;;;;18.80;99.90;;;;;;5078944;28;19924;-70
2023/09/03 03:48:54;;;;;;;;;;;18.90;99.90;;;;;;5081014;28;21063;-68
2023/09/03 03:51:22;;;;;;;;;;;19.20;99.90;;;;;;5081088;28;20311;-68
2023/09/03 03:53:50;;;;;;;;;;;19.20;99.90;;;;;;5081121;28;19947;-69
2023/09/03 03:56:18;;;;;;;;;;;19.30;99.90;;;;;;5079871;28;19931;-71
2023/09/03 03:58:45;;;;;;;;;;;19.30;99.90;;;;;;5080409;28;19977;-69
2023/09/03 04:01:15;;;;;;;;;;;19.20;99.90;;;;;;5087124;28;20023;-69
2023/09/03 04:03:45;;;;;;;;;;;19.00;99.90;;;;;;5082583;28;20016;-71
2023/09/03 04:06:13;;;;;;;;;;;18.80;99.90;;;;;;5082353;28;20398;-71
2023/09/03 04:08:43;;;;;;;;;;;18.60;99.90;;;;;;5082679;28;19986;-68
2023/09/03 04:11:12;;;;;;;;;;;18.50;99.90;;;;;;5085565;28;19932;-69
2023/09/03 04:13:41;;;;;;;;;;;18.30;99.90;;;;;;5084002;28;20982;-71
2023/09/03 04:16:11;;;;;;;;;;;18.20;99.90;;;;;;5081471;28;19942;-70
2023/09/03 04:18:39;;;;;;;;;;;18.20;99.90;;;;;;5079331;28;19936;-69
2023/09/03 04:21:08;;;;;;;;;;;18.20;99.90;;;;;;5082502;28;19928;-70
2023/09/03 04:23:36;;;;;;;;;;;18.40;99.90;;;;;;5082517;28;19931;-67
2023/09/03 04:26:04;;;;;;;;;;;18.50;99.90;;;;;;5082165;28;20555;-71
2023/09/03 04:28:32;;;;;;;;;;;18.80;99.90;;;;;;5081769;28;19928;-68
2023/09/03 04:31:00;;;;;;;;;;;18.80;99.90;;;;;;5081397;28;19968;-68
2023/09/03 04:33:28;;;;;;;;;;;18.80;99.90;;;;;;5081274;28;19932;-73
2023/09/03 04:35:57;;;;;;;;;;;18.80;99.90;;;;;;5082498;28;19954;-69
2023/09/03 04:38:27;;;;;;;;;;;18.90;99.90;;;;;;5077617;28;19939;-69
2023/09/03 04:40:55;;;;;;;;;;;19.10;99.90;;;;;;5082422;28;19932;-68
2023/09/03 04:43:22;;;;;;;;;;;19.10;99.90;;;;;;5082473;28;19932;-70
2023/09/03 04:45:51;;;;;;;;;;;19.30;99.90;;;;;;5081147;28;19934;-74
2023/09/03 04:48:19;;;;;;;;;;;19.40;99.90;;;;;;5077923;28;19932;-70
2023/09/03 04:50:48;;;;;;;;;;;19.40;99.90;;;;;;5080739;28;19992;-73
2023/09/03 04:53:16;;;;;;;;;;;19.30;99.90;;;;;;5082640;28;19965;-71
2023/09/03 04:55:45;;;;;;;;;;;19.30;99.90;;;;;;5082297;28;19955;-69
2023/09/03 04:58:13;;;;;;;;;;;19.30;99.90;;;;;;5080961;28;19928;-70
2023/09/03 05:00:40;;;;;;;;;;;19.30;99.90;;;;;;5080939;28;19932;-71
2023/09/03 05:03:08;;;;;;;;;;;19.40;99.90;;;;;;5077814;28;19936;-72
2023/09/03 05:05:39;;;;;;;;;;;19.30;99.90;;;;;;5081954;28;20054;-73
2023/09/03 05:08:08;;;;;;;;;;;19.30;99.90;;;;;;5077303;28;19928;-73
2023/09/03 05:10:36;;;;;;;;;;;19.30;99.90;;;;;;5080855;28;19975;-71
2023/09/03 05:13:05;;;;;;;;;;;19.30;99.90;;;;;;5085484;28;20667;-72
2023/09/03 05:15:33;;;;;;;;;;;19.30;99.90;;;;;;5084100;28;20659;-69
2023/09/03 05:18:02;;;;;;;;;;;19.30;99.90;;;;;;5081344;28;19933;-72
2023/09/03 05:20:30;;;;;;;;;;;19.40;99.90;;;;;;5083605;28;19932;-70
2023/09/03 05:22:58;;;;;;;;;;;19.40;99.90;;;;;;5084520;28;19932;-69
2023/09/03 05:25:26;;;;;;;;;;;19.40;99.90;;;;;;5083590;28;20313;-70
2023/09/03 05:27:54;;;;;;;;;;;19.40;99.90;;;;;;5082615;28;19938;-71
2023/09/03 05:30:23;;;;;;;;;;;19.40;99.90;;;;;;5083132;28;19939;-71
2023/09/03 05:32:51;;;;;;;;;;;19.40;99.90;;;;;;5081724;28;20719;-72
2023/09/03 05:35:19;;;;;;;;;;;19.40;99.90;;;;;;5082950;28;19935;-72
2023/09/03 05:37:47;;;;;;;;;;;19.30;99.90;;;;;;5080602;28;20018;-72
2023/09/03 05:40:15;;;;;;;;;;;19.30;99.90;;;;;;5083271;28;19931;-68
2023/09/03 05:42:43;;;;;;;;;;;19.20;99.90;;;;;;5084327;28;20023;-70
2023/09/03 05:45:10;;;;;;;;;;;19.30;99.90;;;;;;5083122;28;19932;-71
2023/09/03 05:47:40;;;;;;;;;;;19.40;99.90;;;;;;5085052;28;20020;-74
2023/09/03 05:50:08;;;;;;;;;;;19.50;99.90;;;;;;5081345;28;20413;-71
2023/09/03 05:52:36;;;;;;;;;;;19.60;99.90;;;;;;5084909;28;19932;-70
2023/09/03 05:55:04;;;;;;;;;;;19.70;99.90;;;;;;5081987;28;19938;-70
2023/09/03 05:57:32;;;;;;;;;;;19.60;99.90;;;;;;5082158;28;20017;-69
2023/09/03 06:00:00;;;;;;;;;;;19.70;99.90;;;;;;5080117;28;19947;-68
2023/09/03 06:02:29;;;;;;;;;;;19.80;99.90;;;;;;5084188;28;19928;-70
2023/09/03 06:04:58;;;;;;;;;;;19.80;99.90;;;;;;5082635;28;19936;-70
2023/09/03 06:07:26;;;;;;;;;;;19.70;99.90;;;;;;5085280;28;19985;-69
2023/09/03 06:09:54;;;;;;;;;;;19.80;99.90;;;;;;5079237;28;20088;-70
2023/09/03 06:12:22;;;;;;;;;;;19.90;99.90;;;;;;5082949;28;19931;-73
2023/09/03 06:14:49;;;;;;;;;;;20.00;99.90;;;;;;5082262;28;19932;-69
2023/09/03 06:17:17;;;;;;;;;;;20.00;99.90;;;;;;5084625;28;19924;-68
2023/09/03 06:19:48;;;;;;;;;;;20.00;99.90;;;;;;5080574;28;19924;-69
2023/09/03 06:22:17;;;;;;;;;;;20.10;99.90;;;;;;5082163;28;19924;-70
2023/09/03 06:24:45;;;;;;;;;;;20.10;99.90;;;;;;5082466;28;19930;-72
2023/09/03 06:27:13;;;;;;;;;;;20.10;99.90;;;;;;5082605;28;19935;-71
2023/09/03 06:29:41;;;;;;;;;;;20.10;99.90;;;;;;5079636;28;19932;-69
2023/09/03 06:32:09;;;;;;;;;;;20.10;99.90;;;;;;5080828;28;19932;-72
2023/09/03 06:34:36;;;;;;;;;;;20.10;99.90;;;;;;5081288;28;20027;-72
2023/09/03 06:37:07;;;;;;;;;;;20.00;99.90;;;;;;5082679;28;20481;-71
2023/09/03 06:39:36;;;;;;;;;;;20.00;99.90;;;;;;5081316;28;19932;-70
2023/09/03 06:42:04;;;;;;;;;;;20.00;99.90;;;;;;5081078;28;19932;-72
2023/09/03 06:44:32;;;;;;;;;;;19.90;99.90;;;;;;5083321;28;19981;-70
2023/09/03 06:47:01;;;;;;;;;;;20.00;99.90;;;;;;5084200;28;19939;-69
2023/09/03 06:49:29;;;;;;;;;;;20.00;99.90;;;;;;5079771;28;19943;-70
2023/09/03 06:51:58;;;;;;;;;;;20.00;99.90;;;;;;5080544;28;20862;-68
2023/09/03 06:54:26;;;;;;;;;;;19.90;99.90;;;;;;5082490;28;19927;-68
2023/09/03 06:56:55;;;;;;;;;;;19.90;99.90;;;;;;5083138;28;20005;-69
2023/09/03 06:59:23;;;;;;;;;;;19.90;99.90;;;;;;5078370;28;19935;-69
2023/09/03 07:02:01;;;;;;;;;;;20.00;99.90;;;;;;5080078;28;19928;-70
2023/09/03 07:04:29;;;;;;;;;;;20.00;99.90;;;;;;5079917;28;19927;-70
2023/09/03 07:06:57;;;;;;;;;;;20.10;99.90;;;;;;5082960;28;20255;-68
2023/09/03 07:09:31;;;;;;;;;;;20.00;99.90;;;;;;5080504;28;20023;-67
2023/09/03 07:12:00;;;;;;;;;;;20.20;99.90;;;;;;5082824;28;19932;-71
2023/09/03 07:14:30;;;;;;;;;;;20.40;99.90;;;;;;5081086;28;19939;-68
2023/09/03 07:16:58;;;;;;;;;;;20.40;99.90;;;;;;5079920;28;20005;-72
2023/09/03 07:19:26;;;;;;;;;;;20.40;99.90;;;;;;5077984;28;20436;-68
2023/09/03 07:21:54;;;;;;;;;;;20.40;99.90;;;;;;5082210;28;19936;-68
2023/09/03 07:24:22;;;;;;;;;;;20.40;99.90;;;;;;5078981;28;19936;-69
2023/09/03 07:26:50;;;;;;;;;;;20.60;99.90;;;;;;5081351;28;19935;-69
2023/09/03 07:29:19;;;;;;;;;;;20.70;99.90;;;;;;5077869;28;19935;-70
2023/09/03 07:31:46;;;;;;;;;;;20.80;99.90;;;;;;5082545;28;19925;-68
2023/09/03 07:34:15;;;;;;;;;;;20.80;99.90;;;;;;5080221;28;20421;-68
2023/09/03 07:36:43;;;;;;;;;;;20.90;99.90;;;;;;5080509;28;19935;-69
2023/09/03 07:39:11;;;;;;;;;;;21.00;99.90;;;;;;5078867;28;19939;-69
2023/09/03 07:41:39;;;;;;;;;;;21.10;99.90;;;;;;5080760;28;20793;-68
2023/09/03 07:44:07;;;;;;;;;;;21.20;99.90;;;;;;5078088;28;19932;-70
2023/09/03 07:46:37;;;;;;;;;;;21.30;99.90;;;;;;5081264;28;19932;-68
2023/09/03 07:49:04;;;;;;;;;;;21.30;99.90;;;;;;5075756;28;20008;-70
2023/09/03 07:51:32;;;;;;;;;;;21.20;99.90;;;;;;5078445;28;19936;-73
2023/09/03 07:54:00;;;;;;;;;;;21.10;99.90;;;;;;5076599;28;20313;-68
2023/09/03 07:56:30;;;;;;;;;;;21.10;99.90;;;;;;5080382;28;19940;-68
2023/09/03 07:58:58;;;;;;;;;;;21.00;99.90;;;;;;5076452;28;19936;-71
2023/09/03 08:01:25;;;;;;;;;;;21.00;99.90;;;;;;5079995;28;19985;-69
2023/09/03 08:03:56;;;;;;;;;;;21.20;99.90;;;;;;5078566;28;19932;-70
2023/09/03 08:06:24;;;;;;;;;;;21.30;99.90;;;;;;5078572;28;19939;-69
2023/09/03 08:08:54;;;;;;;;;;;21.40;99.90;;;;;;5076189;28;22707;-69
2023/09/03 08:11:22;;;;;;;;;;;21.50;99.90;;;;;;5078503;28;20326;-70
2023/09/03 08:13:51;;;;;;;;;;;21.50;99.90;;;;;;5079949;28;20285;-68
2023/09/03 08:16:19;;;;;;;;;;;21.60;99.90;;;;;;5078203;28;19932;-69
2023/09/03 08:18:47;;;;;;;;;;;21.60;99.90;;;;;;5078124;28;19928;-69
2023/09/03 08:21:16;;;;;;;;;;;21.60;99.90;;;;;;5075942;28;19951;-68
2023/09/03 08:23:44;;;;;;;;;;;21.50;99.90;;;;;;5081034;28;20410;-68
2023/09/03 08:26:12;;;;;;;;;;;21.40;99.90;;;;;;5079989;28;19932;-68
2023/09/03 08:28:40;;;;;;;;;;;21.40;99.90;;;;;;5077256;28;19935;-71
2023/09/03 08:31:08;;;;;;;;;;;21.40;99.90;;;;;;5077588;28;19958;-69
2023/09/03 08:33:37;;;;;;;;;;;21.60;99.90;;;;;;5079279;28;19932;-68
2023/09/03 08:36:05;;;;;;;;;;;21.90;99.90;;;;;;5079586;28;19955;-72
2023/09/03 08:38:37;;;;;;;;;;;22.20;99.90;;;;;;5077319;28;19975;-70
2023/09/03 08:41:05;;;;;;;;;;;22.50;99.90;;;;;;5079608;28;19932;-71
2023/09/03 08:43:33;;;;;;;;;;;22.70;99.90;;;;;;5077581;28;19932;-68
2023/09/03 08:46:02;;;;;;;;;;;22.90;99.90;;;;;;5080420;28;20410;-68
2023/09/03 08:48:30;;;;;;;;;;;23.20;99.90;;;;;;5083423;28;20058;-68
2023/09/03 08:50:58;;;;;;;;;;;23.40;99.90;;;;;;5082619;28;19939;-70
2023/09/03 08:53:26;;;;;;;;;;;23.50;99.90;;;;;;5082369;28;19935;-67
2023/09/03 08:55:56;;;;;;;;;;;23.70;99.90;;;;;;5082405;28;20153;-68
2023/09/03 08:58:23;;;;;;;;;;;23.60;99.90;;;;;;5082595;28;20424;-67
2023/09/03 09:00:53;;;;;;;;;;;23.50;99.90;;;;;;5083846;28;19971;-70
2023/09/03 09:03:24;;;;;;;;;;;23.60;99.90;;;;;;5082877;28;20431;-69
2023/09/03 09:05:53;;;;;;;;;;;23.60;99.90;;;;;;5083574;28;20429;-67
2023/09/03 09:08:22;;;;;;;;;;;23.50;99.90;;;;;;5081615;28;20653;-69
2023/09/03 09:10:51;;;;;;;;;;;23.50;99.90;;;;;;5082835;28;20138;-69
2023/09/03 09:13:23;;;;;;;;;;;23.50;99.90;;;;;;5084175;28;19932;-68
2023/09/03 09:15:51;;;;;;;;;;;23.50;99.90;;;;;;5082284;28;19932;-67
2023/09/03 09:18:19;;;;;;;;;;;23.50;99.90;;;;;;5080800;28;19938;-69
2023/09/03 09:20:47;;;;;;;;;;;23.70;99.90;;;;;;5082704;28;20413;-70
2023/09/03 09:23:19;;;;;;;;;;;23.80;99.90;;;;;;5083145;28;19932;-70
2023/09/03 09:25:47;;;;;;;;;;;24.10;99.90;;;;;;5080990;28;19924;-69
2023/09/03 09:28:15;;;;;;;;;;;24.30;99.90;;;;;;5078052;28;19932;-69
2023/09/03 09:30:54;;;;;;;;;;;24.10;99.90;;;;;;5082394;28;19939;-71
2023/09/03 09:33:22;;;;;;;;;;;24.20;99.90;;;;;;5080738;28;19932;-69
2023/09/03 09:35:50;;;;;;;;;;;24.10;99.90;;;;;;5082800;28;20036;-68
2023/09/03 09:38:18;;;;;;;;;;;24.00;99.90;;;;;;5081574;28;20029;-71
2023/09/03 09:40:46;;;;;;;;;;;24.00;99.90;;;;;;5082874;28;19924;-70
2023/09/03 09:43:14;;;;;;;;;;;23.90;99.90;;;;;;5080826;28;20276;-68
2023/09/03 09:45:46;;;;;;;;;;;23.90;99.90;;;;;;5083197;28;20920;-68
2023/09/03 09:48:15;;;;;;;;;;;23.80;99.90;;;;;;5079011;28;19934;-72
2023/09/03 09:50:43;;;;;;;;;;;23.80;99.90;;;;;;5083380;28;19928;-69
2023/09/03 09:53:21;;;;;;;;;;;24.10;99.90;;;;;;5081338;28;20419;-68
2023/09/03 09:55:57;;;;;;;;;;;24.40;99.90;;;;;;5085059;28;20321;-68
2023/09/03 09:58:35;;;;;;;;;;;24.40;99.90;;;;;;5080232;28;19932;-68
2023/09/03 10:01:03;;;;;;;;;;;24.70;99.90;;;;;;5082448;28;19939;-70
2023/09/03 10:03:45;;;;;;;;;;;25.00;99.90;;;;;;5080400;28;19932;-70
2023/09/03 10:06:13;;;;;;;;;;;24.90;99.90;;;;;;5082504;28;19928;-71
2023/09/03 10:08:42;;;;;;;;;;;24.90;99.90;;;;;;5078919;28;20035;-68
2023/09/03 10:11:10;;;;;;;;;;;25.30;99.90;;;;;;5082695;28;19928;-69
2023/09/03 10:13:39;;;;;;;;;;;25.20;99.90;;;;;;5082006;28;19936;-70
2023/09/03 10:16:07;;;;;;;;;;;25.00;99.90;;;;;;5079196;28;20361;-67
2023/09/03 10:18:36;;;;;;;;;;;25.00;99.90;;;;;;5079281;28;19943;-69
2023/09/03 10:21:07;;;;;;;;;;;25.00;99.90;;;;;;5082435;28;19931;-68
2023/09/03 10:23:39;;;;;;;;;;;25.10;99.90;;;;;;5080066;28;20322;-71
2023/09/03 10:26:07;;;;;;;;;;;25.10;99.90;;;;;;5083544;28;19938;-67
2023/09/03 10:28:37;;;;;;;;;;;25.10;99.90;;;;;;5075174;28;20401;-68
2023/09/03 10:31:05;;;;;;;;;;;25.10;99.90;;;;;;5081854;28;20520;-70
2023/09/03 10:33:35;;;;;;;;;;;25.30;99.90;;;;;;5081081;28;20291;-69
2023/09/03 10:36:14;;;;;;;;;;;25.50;99.90;;;;;;5083814;28;19939;-71
2023/09/03 10:38:42;;;;;;;;;;;25.50;99.90;;;;;;5080759;28;20921;-69
2023/09/03 10:41:16;;;;;;;;;;;25.20;99.90;;;;;;5080596;28;19932;-71
2023/09/03 10:43:48;;;;;;;;;;;25.30;99.90;;;;;;5081113;28;19924;-68
2023/09/03 10:46:16;;;;;;;;;;;25.20;99.90;;;;;;5082165;28;20053;-68
2023/09/03 10:48:54;;;;;;;;;;;25.30;99.90;;;;;;5077702;28;20287;-68
2023/09/03 10:51:43;;;;;;;;;;;25.40;99.90;;;;;;5081581;28;19978;-71
2023/09/03 10:54:16;;;;;;;;;;;25.70;99.90;;;;;;5081180;28;19982;-69
2023/09/03 10:57:03;;;;;;;;;;;25.90;99.90;;;;;;5082589;28;20004;-69
2023/09/03 10:59:46;;;;;;;;;;;25.90;99.90;;;;;;5076109;28;19961;-70
2023/09/03 11:02:26;;;;;;;;;;;26.00;99.90;;;;;;5080650;28;19928;-71
2023/09/03 11:05:09;;;;;;;;;;;26.10;99.90;;;;;;5082206;28;20016;-68
2023/09/03 11:07:37;;;;;;;;;;;26.40;99.90;;;;;;5080668;28;20030;-71
2023/09/03 11:10:25;;;;;;;;;;;26.50;99.90;;;;;;5079385;28;19967;-69
2023/09/03 11:12:54;;;;;;;;;;;26.70;99.90;;;;;;5079501;28;19939;-69
2023/09/03 11:15:22;;;;;;;;;;;26.90;99.90;;;;;;5080598;28;19932;-69
2023/09/03 11:17:50;;;;;;;;;;;27.00;99.90;;;;;;5080092;28;19939;-71
2023/09/03 11:20:27;;;;;;;;;;;26.80;99.90;;;;;;5076797;28;19977;-69
2023/09/03 11:23:14;;;;;;;;;;;26.70;99.90;;;;;;5079058;28;19928;-70
2023/09/03 11:25:42;;;;;;;;;;;27.00;99.90;;;;;;5080266;28;20643;-71
2023/09/03 11:28:15;;;;;;;;;;;27.40;99.90;;;;;;5076740;28;19932;-71
2023/09/03 11:30:43;;;;;;;;;;;27.50;99.90;;;;;;5082090;28;19932;-69
2023/09/03 11:33:24;;;;;;;;;;;27.60;99.90;;;;;;5081558;28;19932;-70
2023/09/03 11:35:53;;;;;;;;;;;27.70;99.90;;;;;;5081674;28;20406;-70
2023/09/03 11:38:22;;;;;;;;;;;27.40;99.90;;;;;;5077077;28;19935;-70
2023/09/03 11:40:53;;;;;;;;;;;27.50;99.90;;;;;;5081383;28;19942;-68
2023/09/03 11:43:22;;;;;;;;;;;27.60;99.90;;;;;;5081453;28;19976;-68
2023/09/03 11:45:50;;;;;;;;;;;27.70;99.90;;;;;;5080094;28;19932;-70
2023/09/03 11:48:23;;;;;;;;;;;27.60;99.90;;;;;;5078765;28;19932;-70
2023/09/03 11:50:51;;;;;;;;;;;27.50;99.90;;;;;;5080347;28;19940;-72
2023/09/03 11:53:19;;;;;;;;;;;27.70;99.90;;;;;;5082070;28;19931;-73
2023/09/03 11:55:49;;;;;;;;;;;27.90;99.90;;;;;;5082718;28;20386;-68
2023/09/03 11:58:20;;;;;;;;;;;27.80;99.90;;;;;;5076939;28;19965;-69
2023/09/03 12:00:49;;;;;;;;;;;27.60;99.90;;;;;;5080663;28;19924;-69
2023/09/03 12:03:17;;;;;;;;;;;27.80;99.90;;;;;;5076033;28;19924;-71
2023/09/03 12:05:45;;;;;;;;;;;28.00;99.90;;;;;;5083162;28;19924;-68
2023/09/03 12:08:13;;;;;;;;;;;27.80;99.90;;;;;;5077075;28;19936;-73
2023/09/03 12:10:47;;;;;;;;;;;28.00;99.90;;;;;;5078690;28;19928;-71
2023/09/03 12:13:14;;;;;;;;;;;28.20;99.90;;;;;;5080137;28;19924;-70
2023/09/03 12:15:42;;;;;;;;;;;28.20;99.90;;;;;;5076192;28;19936;-69
2023/09/03 12:18:11;;;;;;;;;;;28.60;99.90;;;;;;5075764;28;19939;-73
2023/09/03 12:20:40;;;;;;;;;;;28.90;99.90;;;;;;5081942;28;19936;-68
2023/09/03 12:23:09;;;;;;;;;;;28.70;99.90;;;;;;5083388;28;19946;-69
2023/09/03 12:25:37;;;;;;;;;;;28.30;99.90;;;;;;5083091;28;19932;-71
2023/09/03 12:28:06;;;;;;;;;;;27.90;99.90;;;;;;5079525;28;20392;-70
2023/09/03 12:30:52;;;;;;;;;;;27.50;99.90;;;;;;5081175;28;21184;-69
2023/09/03 12:33:21;;;;;;;;;;;28.10;99.90;;;;;;5082317;28;19940;-68
2023/09/03 12:36:05;;;;;;;;;;;28.70;99.90;;;;;;5080746;28;19931;-72
2023/09/03 12:38:47;;;;;;;;;;;29.00;99.90;;;;;;5080959;28;20010;-70
2023/09/03 12:41:15;;;;;;;;;;;29.40;99.90;;;;;;5082652;28;19990;-68
2023/09/03 12:43:43;;;;;;;;;;;29.00;99.90;;;;;;5082815;28;19955;-72
2023/09/03 12:46:12;;;;;;;;;;;28.60;99.90;;;;;;5084793;28;19932;-69
2023/09/03 12:48:41;;;;;;;;;;;28.70;99.90;;;;;;5080534;28;19939;-71
2023/09/03 12:51:10;;;;;;;;;;;29.10;99.90;;;;;;5082350;28;21117;-69
2023/09/03 12:53:39;;;;;;;;;;;29.20;99.90;;;;;;5082638;28;19932;-70
2023/09/03 12:56:07;;;;;;;;;;;29.40;99.90;;;;;;5085044;28;19939;-69
2023/09/03 12:58:34;;;;;;;;;;;29.70;99.90;;;;;;5081733;28;19939;-70
2023/09/03 13:01:02;;;;;;;;;;;29.80;99.90;;;;;;5082917;28;19928;-69
2023/09/03 13:03:30;;;;;;;;;;;29.80;99.90;;;;;;5082562;28;20085;-69
2023/09/03 13:05:59;;;;;;;;;;;29.70;99.90;;;;;;5083518;28;19932;-68
2023/09/03 13:08:27;;;;;;;;;;;29.80;99.90;;;;;;5082615;28;19932;-69
2023/09/03 13:10:55;;;;;;;;;;;29.90;99.90;;;;;;5082938;28;19943;-69
2023/09/03 13:13:23;;;;;;;;;;;29.90;99.90;;;;;;5081202;28;20051;-71
2023/09/03 13:15:51;;;;;;;;;;;29.80;99.90;;;;;;5082615;28;19932;-72
2023/09/03 13:18:19;;;;;;;;;;;29.60;99.90;;;;;;5079752;28;19933;-70
2023/09/03 13:20:47;;;;;;;;;;;29.60;99.90;;;;;;5082906;28;19935;-69
2023/09/03 13:23:16;;;;;;;;;;;29.60;99.90;;;;;;5083497;28;19935;-69
2023/09/03 13:25:44;;;;;;;;;;;29.70;99.90;;;;;;5084515;28;20019;-69
2023/09/03 13:28:12;;;;;;;;;;;29.80;99.90;;;;;;5080390;28;19931;-69
2023/09/03 13:30:40;;;;;;;;;;;29.70;99.90;;;;;;5081740;28;19963;-71
2023/09/03 13:33:24;;;;;;;;;;;29.90;99.90;;;;;;5082958;28;19971;-69
2023/09/03 13:35:53;;;;;;;;;;;30.20;99.90;;;;;;5082517;28;19939;-70
2023/09/03 13:38:22;;;;;;;;;;;30.10;99.90;;;;;;5082147;28;20005;-69
2023/09/03 13:40:50;;;;;;;;;;;29.40;99.90;;;;;;5083610;28;20653;-70
2023/09/03 13:43:18;;;;;;;;;;;29.40;99.90;;;;;;5083993;28;19966;-69
2023/09/03 13:45:53;;;;;;;;;;;29.70;99.90;;;;;;5083167;28;19932;-68
2023/09/03 13:48:21;;;;;;;;;;;29.90;99.90;;;;;;5082130;28;19931;-69
2023/09/03 13:50:51;;;;;;;;;;;29.90;99.90;;;;;;5083677;28;19939;-69
2023/09/03 13:53:19;;;;;;;;;;;29.40;99.90;;;;;;5083062;28;19938;-69
2023/09/03 13:55:49;;;;;;;;;;;29.20;99.90;;;;;;5084030;28;19935;-69
2023/09/03 13:58:17;;;;;;;;;;;29.30;99.90;;;;;;5082163;28;20399;-69
2023/09/03 14:00:45;;;;;;;;;;;29.00;99.90;;;;;;5083570;28;19932;-69
2023/09/03 14:03:13;;;;;;;;;;;29.00;99.90;;;;;;5082977;28;20069;-70
2023/09/03 14:05:41;;;;;;;;;;;28.70;99.90;;;;;;5084178;28;20287;-69
2023/09/03 14:08:09;;;;;;;;;;;28.60;99.90;;;;;;5083223;28;20426;-69
2023/09/03 14:10:37;;;;;;;;;;;28.70;99.90;;;;;;5082789;28;19939;-69
2023/09/03 14:13:06;;;;;;;;;;;28.50;99.90;;;;;;5084284;28;20678;-69
2023/09/03 14:15:34;;;;;;;;;;;28.30;99.90;;;;;;5083954;28;20729;-69
2023/09/03 14:18:03;;;;;;;;;;;28.10;99.90;;;;;;5079831;28;19932;-69
2023/09/03 14:20:35;;;;;;;;;;;28.10;99.90;;;;;;5079212;28;19942;-70
2023/09/03 14:23:03;;;;;;;;;;;28.30;99.90;;;;;;5083726;28;19932;-69
2023/09/03 14:25:33;;;;;;;;;;;28.10;99.90;;;;;;5080609;28;21033;-69
2023/09/03 14:28:01;;;;;;;;;;;27.90;99.90;;;;;;5080174;28;19953;-71